Decoded Metar for KVNW ( in ) (IATA:) | Meteo·Mobile Aviation Weather
aviador You're here:

KVNW Decoded Metar

in
Report Time2018-10-16 02:15:00
UTC Time2018-10-16 02:18:15
Flight Rules vfr VFR
WindCalm
Visibility9999 m
Phenomena:N/A
Clouds:N/A
Expected CloudBase > 1,200 ft AGL from Temp-Dew spread
CeilingNone
Temp03°C
Dew Point00°C (81% RH)
AAT1.0°C
QNH1025 hPa
Raw Report
METAR KVNW 160215Z AUTO 00000KT 10SM CLR 03/00 A3026 RMK AO2=

Extra information for KVNW:More info

Social comments